createdAt,value
2018-05-04T00:00:26.618Z,11.28
2018-05-04T00:01:26.564Z,11.2
2018-05-04T00:02:26.593Z,11.28
2018-05-04T00:03:26.586Z,11.18
2018-05-04T00:04:26.574Z,11.13
2018-05-04T00:05:26.569Z,11.09
2018-05-04T00:06:26.574Z,11.1
2018-05-04T00:07:26.299Z,11.18
2018-05-04T00:08:26.544Z,11.09
2018-05-04T00:09:26.549Z,11.08
2018-05-04T00:10:26.520Z,11.13
2018-05-04T00:11:26.252Z,11.13
2018-05-04T00:12:26.246Z,11.09
2018-05-04T00:13:26.238Z,11.05
2018-05-04T00:14:26.486Z,11.08
2018-05-04T00:15:26.220Z,11.1
2018-05-04T00:16:26.467Z,11.06
2018-05-04T00:17:26.020Z,11.06
2018-05-04T00:18:26.603Z,11
2018-05-04T00:19:26.434Z,11.06
2018-05-04T00:20:26.427Z,11.06
2018-05-04T00:21:26.447Z,11.02
2018-05-04T00:22:25.893Z,11.02
2018-05-04T00:23:26.481Z,11.08
2018-05-04T00:24:26.395Z,10.95
2018-05-04T00:25:26.383Z,10.97
2018-05-04T00:26:26.370Z,10.94
2018-05-04T00:27:26.111Z,10.91
2018-05-04T00:28:26.365Z,10.87
2018-05-04T00:29:26.345Z,10.88
2018-05-04T00:30:26.339Z,10.94
2018-05-04T00:31:25.811Z,10.87
2018-05-04T00:32:26.059Z,10.9
2018-05-04T00:33:26.047Z,10.91
2018-05-04T00:34:26.299Z,10.92
2018-05-04T00:35:26.287Z,10.91
2018-05-04T00:36:26.279Z,10.87
2018-05-04T00:37:26.270Z,10.88
2018-05-04T00:38:25.758Z,10.88
2018-05-04T00:39:25.996Z,10.77
2018-05-04T00:40:26.243Z,10.75
2018-05-04T00:41:25.973Z,10.79
2018-05-04T00:42:26.224Z,10.84
2018-05-04T00:43:26.210Z,10.77
2018-05-04T00:44:26.206Z,10.67
2018-05-04T00:45:25.935Z,10.7
2018-05-04T00:46:26.189Z,10.63
2018-05-04T00:47:25.914Z,10.7
2018-05-04T00:48:26.167Z,10.67
2018-05-04T00:49:26.160Z,10.67
2018-05-04T00:50:26.160Z,10.65
2018-05-04T00:51:26.148Z,10.61
2018-05-04T00:52:25.868Z,10.59
2018-05-04T00:53:26.124Z,10.57
2018-05-04T00:54:25.856Z,10.55
2018-05-04T00:55:25.582Z,10.52
2018-05-04T00:56:25.831Z,10.55
2018-05-04T00:57:26.088Z,10.55
2018-05-04T00:58:26.085Z,10.46
2018-05-04T00:59:26.071Z,10.42
2018-05-04T01:00:26.047Z,10.36
2018-05-04T01:01:26.040Z,10.41
2018-05-04T01:02:26.029Z,10.36
2018-05-04T01:03:26.034Z,10.32
2018-05-04T01:04:26.229Z,10.23
2018-05-04T01:05:26.013Z,10.17
2018-05-04T01:06:25.735Z,10.18
2018-05-04T01:07:25.986Z,10.17
2018-05-04T01:08:25.713Z,10.15
2018-05-04T01:09:25.960Z,10.11
2018-05-04T01:10:25.953Z,10.03
2018-05-04T01:11:25.948Z,10.03
2018-05-04T01:12:25.678Z,10.03
2018-05-04T01:13:25.923Z,9.99
2018-05-04T01:14:25.932Z,9.98
2018-05-04T01:15:25.916Z,10.03
2018-05-04T01:16:25.896Z,10
2018-05-04T01:17:25.629Z,9.93
2018-05-04T01:18:25.613Z,9.93
2018-05-04T01:19:25.349Z,9.93
2018-05-04T01:20:25.857Z,9.95
2018-05-04T01:21:25.589Z,9.95
2018-05-04T01:22:25.319Z,9.92
2018-05-04T01:23:25.823Z,9.82
2018-05-04T01:24:25.813Z,9.92
2018-05-04T01:25:25.808Z,9.92
2018-05-04T01:26:25.808Z,9.85
2018-05-04T01:27:25.542Z,9.84
2018-05-04T01:28:25.972Z,9.89
2018-05-04T01:29:25.488Z,9.85
2018-05-04T01:30:25.495Z,9.92
2018-05-04T01:31:25.486Z,9.89
2018-05-04T01:32:25.736Z,9.81
2018-05-04T01:33:25.472Z,9.81
2018-05-04T01:34:25.715Z,9.85
2018-05-04T01:35:25.705Z,9.74
2018-05-04T01:36:25.694Z,9.92
2018-05-04T01:37:25.435Z,9.75
2018-05-04T01:38:25.412Z,9.78
2018-05-04T01:39:25.662Z,9.81
2018-05-04T01:40:25.659Z,9.78
2018-05-04T01:41:25.646Z,9.72
2018-05-04T01:42:25.377Z,9.78
2018-05-04T01:43:25.585Z,9.74
2018-05-04T01:44:25.612Z,9.78
2018-05-04T01:45:25.350Z,9.74
2018-05-04T01:46:25.591Z,9.66
2018-05-04T01:47:25.327Z,9.71
2018-05-04T01:48:25.583Z,9.63
2018-05-04T01:49:25.577Z,9.74
2018-05-04T01:50:25.294Z,9.67
2018-05-04T01:51:25.542Z,9.71
2018-05-04T01:52:25.013Z,9.72
2018-05-04T01:53:25.516Z,9.64
2018-05-04T01:54:25.282Z,9.66
2018-05-04T01:55:25.261Z,9.63
2018-05-04T01:56:25.246Z,9.6
2018-05-04T01:57:25.499Z,9.59
2018-05-04T01:58:25.215Z,9.6
2018-05-04T01:59:25.458Z,9.55
2018-05-04T02:00:25.449Z,9.55
2018-05-04T02:01:24.920Z,9.52
2018-05-04T02:02:25.428Z,9.45
2018-05-04T02:03:25.503Z,9.32
2018-05-04T02:04:25.409Z,9.3
2018-05-04T02:05:25.392Z,9.3
2018-05-04T02:06:25.128Z,9.3
2018-05-04T02:07:25.394Z,9.26
2018-05-04T02:08:25.363Z,9.17
2018-05-04T02:09:25.094Z,9.05
2018-05-04T02:10:25.090Z,9.09
2018-05-04T02:11:25.332Z,9.03
2018-05-04T02:12:25.337Z,9.01
2018-05-04T02:13:25.316Z,8.98
2018-05-04T02:14:25.294Z,8.94
2018-05-04T02:15:25.294Z,8.92
2018-05-04T02:16:25.287Z,8.87
2018-05-04T02:17:25.275Z,8.87
2018-05-04T02:18:25.263Z,8.87
2018-05-04T02:19:25.321Z,8.74
2018-05-04T02:20:24.973Z,8.72
2018-05-04T02:21:24.964Z,8.72
2018-05-04T02:22:24.962Z,8.71
2018-05-04T02:23:25.201Z,8.71
2018-05-04T02:24:25.146Z,8.64
2018-05-04T02:25:25.179Z,8.64
2018-05-04T02:26:24.652Z,8.61
2018-05-04T02:27:25.165Z,8.58
2018-05-04T02:28:25.156Z,8.6
2018-05-04T02:29:25.146Z,8.47
2018-05-04T02:30:25.147Z,8.49
2018-05-04T02:31:24.864Z,8.49
2018-05-04T02:32:24.860Z,8.4
2018-05-04T02:33:25.102Z,8.4
2018-05-04T02:34:24.831Z,8.31
2018-05-04T02:35:25.099Z,8.36
2018-05-04T02:36:24.810Z,8.32
2018-05-04T02:37:25.067Z,8.29
2018-05-04T02:38:25.045Z,8.19
2018-05-04T02:39:25.062Z,8.24
2018-05-04T02:40:24.502Z,8.34
2018-05-04T02:41:24.748Z,8.17
2018-05-04T02:42:24.737Z,8.28
2018-05-04T02:43:24.473Z,8.17
2018-05-04T02:44:24.971Z,8.26
2018-05-04T02:45:24.979Z,8.04
2018-05-04T02:46:24.949Z,8.21
2018-05-04T02:47:24.948Z,8.11
2018-05-04T02:48:24.947Z,8.09
2018-05-04T02:49:24.946Z,8.14
2018-05-04T02:50:24.390Z,8.06
2018-05-04T02:51:24.896Z,8.07
2018-05-04T02:52:24.899Z,8.06
2018-05-04T02:53:24.871Z,8.04
2018-05-04T02:54:24.864Z,8.06
2018-05-04T02:55:25.023Z,7.99
2018-05-04T02:56:24.838Z,7.98
2018-05-04T02:57:24.824Z,7.99
2018-05-04T02:58:24.808Z,8.01
2018-05-04T02:59:24.801Z,7.98
2018-05-04T03:00:24.800Z,7.95
2018-05-04T03:01:24.796Z,7.92
2018-05-04T03:02:24.869Z,7.99
2018-05-04T03:03:24.761Z,7.99
2018-05-04T03:04:24.484Z,7.96
2018-05-04T03:05:24.740Z,7.91
2018-05-04T03:06:24.725Z,7.88
2018-05-04T03:07:24.906Z,7.85
2018-05-04T03:08:24.700Z,7.75
2018-05-04T03:09:24.691Z,7.77
2018-05-04T03:10:24.680Z,7.78
2018-05-04T03:11:24.406Z,7.8
2018-05-04T03:12:24.655Z,7.77
2018-05-04T03:13:24.649Z,7.68
2018-05-04T03:14:24.623Z,7.77
2018-05-04T03:15:24.618Z,7.67
2018-05-04T03:16:24.346Z,7.61
2018-05-04T03:17:24.334Z,7.67
2018-05-04T03:18:24.597Z,7.7
2018-05-04T03:19:24.796Z,7.64
2018-05-04T03:20:24.576Z,7.61
2018-05-04T03:21:24.288Z,7.63
2018-05-04T03:22:24.538Z,7.56
2018-05-04T03:23:24.273Z,7.52
2018-05-04T03:24:24.520Z,7.47
2018-05-04T03:25:24.502Z,7.56
2018-05-04T03:26:24.484Z,7.48
2018-05-04T03:27:24.487Z,7.52
2018-05-04T03:28:24.466Z,7.52
2018-05-04T03:29:24.487Z,7.49
2018-05-04T03:30:24.454Z,7.4
2018-05-04T03:31:24.189Z,7.45
2018-05-04T03:32:24.419Z,7.4
2018-05-04T03:33:24.406Z,7.48
2018-05-04T03:34:24.391Z,7.49
2018-05-04T03:35:24.404Z,7.41
2018-05-04T03:36:24.397Z,7.45
2018-05-04T03:37:24.360Z,7.47
2018-05-04T03:38:24.091Z,7.4
2018-05-04T03:39:24.079Z,7.49
2018-05-04T03:40:24.349Z,7.47
2018-05-04T03:41:24.314Z,7.4
2018-05-04T03:42:24.316Z,7.48
2018-05-04T03:43:24.031Z,7.44
2018-05-04T03:44:24.291Z,7.45
2018-05-04T03:45:24.016Z,7.41
2018-05-04T03:46:24.283Z,7.41
2018-05-04T03:47:23.990Z,7.48
2018-05-04T03:48:24.228Z,7.41
2018-05-04T03:49:24.218Z,7.39
2018-05-04T03:50:23.949Z,7.36
2018-05-04T03:51:23.937Z,7.41
2018-05-04T03:52:23.925Z,7.41
2018-05-04T03:53:23.914Z,7.34
2018-05-04T03:54:24.157Z,7.39
2018-05-04T03:55:23.892Z,7.45
2018-05-04T03:56:24.137Z,7.44
2018-05-04T03:57:24.084Z,7.41
2018-05-04T03:58:24.140Z,7.51
2018-05-04T03:59:23.858Z,7.54
2018-05-04T04:00:24.083Z,7.56
2018-05-04T04:01:23.826Z,7.64
2018-05-04T04:02:24.224Z,7.63
2018-05-04T04:03:24.060Z,7.7
2018-05-04T04:04:24.052Z,7.85
2018-05-04T04:05:24.052Z,7.8
2018-05-04T04:06:23.764Z,7.8
2018-05-04T04:07:23.750Z,7.82
2018-05-04T04:08:23.993Z,7.88
2018-05-04T04:09:23.982Z,7.95
2018-05-04T04:10:23.968Z,8.01
2018-05-04T04:11:23.962Z,8.07
2018-05-04T04:12:23.908Z,8.19
2018-05-04T04:13:23.938Z,8.19
2018-05-04T04:14:23.667Z,8.13
2018-05-04T04:15:23.915Z,8.19
2018-05-04T04:16:23.640Z,8.25
2018-05-04T04:17:23.374Z,8.28
2018-05-04T04:18:23.618Z,8.28
2018-05-04T04:19:23.887Z,8.35
2018-05-04T04:20:23.339Z,8.34
2018-05-04T04:21:23.327Z,8.42
2018-05-04T04:22:23.831Z,8.43
2018-05-04T04:23:23.562Z,8.52
2018-05-04T04:24:23.562Z,8.47
2018-05-04T04:25:23.800Z,8.5
2018-05-04T04:26:23.525Z,8.57
2018-05-04T04:27:23.771Z,8.65
2018-05-04T04:28:23.910Z,8.64
2018-05-04T04:29:23.497Z,8.6
2018-05-04T04:30:23.543Z,8.65
2018-05-04T04:31:23.732Z,8.68
2018-05-04T04:32:23.459Z,8.72
2018-05-04T04:33:23.787Z,8.76
2018-05-04T04:34:23.708Z,8.76
2018-05-04T04:35:23.432Z,8.76
2018-05-04T04:36:23.671Z,8.85
2018-05-04T04:37:23.659Z,8.92
2018-05-04T04:38:23.650Z,8.8
2018-05-04T04:39:23.646Z,8.9
2018-05-04T04:40:23.370Z,8.9
2018-05-04T04:41:23.622Z,8.92
2018-05-04T04:42:23.365Z,9.05
2018-05-04T04:43:23.079Z,9.04
2018-05-04T04:44:23.597Z,9.03
2018-05-04T04:45:23.571Z,9.01
2018-05-04T04:46:23.301Z,9.01
2018-05-04T04:47:23.293Z,8.86
2018-05-04T04:48:23.278Z,9
2018-05-04T04:49:23.525Z,8.95
2018-05-04T04:50:23.738Z,8.97
2018-05-04T04:51:23.250Z,9
2018-05-04T04:52:23.240Z,8.98
2018-05-04T04:53:23.238Z,9.01
2018-05-04T04:54:23.212Z,9.01
2018-05-04T04:55:23.476Z,9
2018-05-04T04:56:23.453Z,9.04
2018-05-04T04:57:23.444Z,9.03
2018-05-04T04:58:23.439Z,9.01
2018-05-04T04:59:23.428Z,9.09
2018-05-04T05:00:23.404Z,9.01
2018-05-04T05:01:23.392Z,9.16
2018-05-04T05:02:23.384Z,9.12
2018-05-04T05:03:23.115Z,9.2
2018-05-04T05:04:23.111Z,9.17
2018-05-04T05:05:23.097Z,9.2
2018-05-04T05:06:23.338Z,9.21
2018-05-04T05:07:23.069Z,9.19
2018-05-04T05:08:23.316Z,9.3
2018-05-04T05:09:23.045Z,9.34
2018-05-04T05:10:23.310Z,9.29
2018-05-04T05:11:23.035Z,9.29
2018-05-04T05:12:23.018Z,9.44
2018-05-04T05:13:22.750Z,9.5
2018-05-04T05:14:22.993Z,9.5
2018-05-04T05:15:22.993Z,9.45
2018-05-04T05:16:22.974Z,9.48
2018-05-04T05:17:23.183Z,9.48
2018-05-04T05:18:22.947Z,9.55
2018-05-04T05:19:23.238Z,9.47
2018-05-04T05:20:23.190Z,9.52
2018-05-04T05:21:23.181Z,9.5
2018-05-04T05:22:23.161Z,9.48
2018-05-04T05:23:23.156Z,9.62
2018-05-04T05:24:23.148Z,9.59
2018-05-04T05:25:23.134Z,9.53
2018-05-04T05:26:23.121Z,9.6
2018-05-04T05:27:22.853Z,9.59
2018-05-04T05:28:23.102Z,9.57
2018-05-04T05:29:23.118Z,9.6
2018-05-04T05:30:23.078Z,9.56
2018-05-04T05:31:23.068Z,9.55
2018-05-04T05:32:22.801Z,9.57
2018-05-04T05:33:23.048Z,9.6
2018-05-04T05:34:22.783Z,9.55
2018-05-04T05:35:23.032Z,9.55
2018-05-04T05:36:22.764Z,9.56
2018-05-04T05:37:22.752Z,9.57
2018-05-04T05:38:22.994Z,9.53
2018-05-04T05:39:22.983Z,9.59
2018-05-04T05:40:22.735Z,9.55
2018-05-04T05:41:22.712Z,9.47
2018-05-04T05:42:22.870Z,9.6
2018-05-04T05:43:22.688Z,9.6
2018-05-04T05:44:22.935Z,9.56
2018-05-04T05:45:22.662Z,9.66
2018-05-04T05:46:22.907Z,9.56
2018-05-04T05:47:22.640Z,9.53
2018-05-04T05:48:22.890Z,9.72
2018-05-04T05:49:22.877Z,9.7
2018-05-04T05:50:22.614Z,9.64
2018-05-04T05:51:22.862Z,9.72
2018-05-04T05:52:22.847Z,9.63
2018-05-04T05:53:22.840Z,9.77
2018-05-04T05:54:22.572Z,9.74
2018-05-04T05:55:22.817Z,9.7
2018-05-04T05:56:22.810Z,9.78
2018-05-04T05:57:22.861Z,9.77
2018-05-04T05:58:22.783Z,9.78
2018-05-04T05:59:22.522Z,9.84
2018-05-04T06:00:22.508Z,9.81
2018-05-04T06:01:22.751Z,9.78
2018-05-04T06:02:22.489Z,9.88
2018-05-04T06:03:22.475Z,9.85
2018-05-04T06:04:22.742Z,9.81
2018-05-04T06:05:22.716Z,9.81
2018-05-04T06:06:22.451Z,9.9
2018-05-04T06:07:22.696Z,9.9
2018-05-04T06:08:22.423Z,9.8
2018-05-04T06:09:22.838Z,9.92
2018-05-04T06:10:22.663Z,9.84
2018-05-04T06:11:22.584Z,9.81
2018-05-04T06:12:22.637Z,9.84
2018-05-04T06:13:22.371Z,9.75
2018-05-04T06:14:22.359Z,9.84
2018-05-04T06:15:22.363Z,9.81
2018-05-04T06:16:22.606Z,9.92
2018-05-04T06:17:22.595Z,9.96
2018-05-04T06:18:22.321Z,9.92
2018-05-04T06:19:22.310Z,9.93
2018-05-04T06:20:22.563Z,9.96
2018-05-04T06:21:22.544Z,10.13
2018-05-04T06:22:22.039Z,10.07
2018-05-04T06:23:22.525Z,10.13
2018-05-04T06:24:22.512Z,10.21
2018-05-04T06:25:22.511Z,10.21
2018-05-04T06:26:22.233Z,10.29
2018-05-04T06:27:22.490Z,10.31
2018-05-04T06:28:22.317Z,10.38
2018-05-04T06:29:22.473Z,10.41
2018-05-04T06:30:22.461Z,10.44
2018-05-04T06:31:22.445Z,10.49
2018-05-04T06:32:22.440Z,10.52
2018-05-04T06:33:22.442Z,10.57
2018-05-04T06:34:22.155Z,10.59
2018-05-04T06:35:22.161Z,10.63
2018-05-04T06:36:22.419Z,10.73
2018-05-04T06:37:22.386Z,10.65
2018-05-04T06:38:22.378Z,10.69
2018-05-04T06:39:22.108Z,10.7
2018-05-04T06:40:22.100Z,10.77
2018-05-04T06:41:22.350Z,10.77
2018-05-04T06:42:22.338Z,10.79
2018-05-04T06:43:22.329Z,10.85
2018-05-04T06:44:22.341Z,10.95
2018-05-04T06:45:22.307Z,10.98
2018-05-04T06:46:22.301Z,10.98
2018-05-04T06:47:22.290Z,11.06
2018-05-04T06:48:22.284Z,11.06
2018-05-04T06:49:22.010Z,11.08
2018-05-04T06:50:22.279Z,11.12
2018-05-04T06:51:21.994Z,11.2
2018-05-04T06:52:22.265Z,11.35
2018-05-04T06:53:22.125Z,11.39
2018-05-04T06:54:22.306Z,11.35
2018-05-04T06:55:21.957Z,11.33
2018-05-04T06:56:21.945Z,11.41
2018-05-04T06:57:21.953Z,11.45
2018-05-04T06:58:22.186Z,11.45
2018-05-04T06:59:22.359Z,11.48
2018-05-04T07:00:21.911Z,11.63
2018-05-04T07:01:21.902Z,11.61
2018-05-04T07:02:22.145Z,11.68
2018-05-04T07:03:21.884Z,11.82
2018-05-04T07:04:21.616Z,11.76
2018-05-04T07:05:21.609Z,11.78
2018-05-04T07:06:22.121Z,11.79
2018-05-04T07:07:21.848Z,11.78
2018-05-04T07:08:22.097Z,11.67
2018-05-04T07:09:22.096Z,11.7
2018-05-04T07:10:22.217Z,11.78
2018-05-04T07:11:22.074Z,11.82
2018-05-04T07:12:22.068Z,11.79
2018-05-04T07:13:22.665Z,11.86
2018-05-04T07:14:21.792Z,11.86
2018-05-04T07:15:21.777Z,11.89
2018-05-04T07:16:21.777Z,11.84
2018-05-04T07:17:21.761Z,11.73
2018-05-04T07:18:22.027Z,11.76
2018-05-04T07:19:22.001Z,11.79
2018-05-04T07:20:21.732Z,11.76
2018-05-04T07:21:21.982Z,11.67
2018-05-04T07:22:21.981Z,11.66
2018-05-04T07:23:21.968Z,11.78
2018-05-04T07:24:21.973Z,11.82
2018-05-04T07:25:21.983Z,11.88
2018-05-04T07:26:21.689Z,11.78
2018-05-04T07:27:21.675Z,11.84
2018-05-04T07:28:21.930Z,11.85
2018-05-04T07:29:21.661Z,11.78
2018-05-04T07:30:21.924Z,11.76
2018-05-04T07:31:21.905Z,11.73
2018-05-04T07:32:22.090Z,11.79
2018-05-04T07:33:21.623Z,11.85
2018-05-04T07:34:21.869Z,11.79
2018-05-04T07:35:21.898Z,11.84
2018-05-04T07:36:21.853Z,11.75
2018-05-04T07:37:21.590Z,11.68
2018-05-04T07:38:21.846Z,11.67
2018-05-04T07:39:21.574Z,11.78
2018-05-04T07:40:21.566Z,11.67
2018-05-04T07:41:21.820Z,11.82
2018-05-04T07:42:21.801Z,11.82
2018-05-04T07:43:21.541Z,11.75
2018-05-04T07:44:21.789Z,11.66
2018-05-04T07:45:21.783Z,11.76
2018-05-04T07:46:21.856Z,11.79
2018-05-04T07:47:21.250Z,11.78
2018-05-04T07:48:21.500Z,11.78
2018-05-04T07:49:21.741Z,11.79
2018-05-04T07:50:21.486Z,11.78
2018-05-04T07:51:21.212Z,11.91
2018-05-04T07:52:21.205Z,11.85
2018-05-04T07:53:21.714Z,11.85
2018-05-04T07:54:21.187Z,11.76
2018-05-04T07:55:21.962Z,11.94
2018-05-04T07:56:21.431Z,12
2018-05-04T07:57:21.682Z,12.03
2018-05-04T07:58:21.717Z,12.03
2018-05-04T07:59:21.471Z,12.04
2018-05-04T08:00:21.655Z,12.18
2018-05-04T08:01:21.400Z,12.28
2018-05-04T08:02:21.639Z,12.31
2018-05-04T08:03:21.633Z,12.33
2018-05-04T08:04:21.624Z,12.36
2018-05-04T08:05:21.614Z,12.41
2018-05-04T08:06:21.605Z,12.45
2018-05-04T08:07:21.337Z,12.43
2018-05-04T08:08:21.585Z,12.56
2018-05-04T08:09:21.381Z,12.44
2018-05-04T08:10:21.580Z,12.37
2018-05-04T08:11:21.567Z,12.44
2018-05-04T08:12:21.297Z,12.38
2018-05-04T08:13:21.289Z,12.41
2018-05-04T08:14:21.283Z,12.34
2018-05-04T08:15:21.553Z,12.33
2018-05-04T08:16:21.265Z,12.26
2018-05-04T08:17:21.260Z,12.22
2018-05-04T08:18:21.252Z,12.23
2018-05-04T08:19:20.986Z,12.28
2018-05-04T08:20:21.236Z,12.28
2018-05-04T08:21:21.487Z,12.36
2018-05-04T08:22:21.488Z,12.41
2018-05-04T08:23:21.468Z,12.38
2018-05-04T08:24:21.459Z,12.31
2018-05-04T08:25:21.193Z,12.38
2018-05-04T08:26:21.447Z,12.28
2018-05-04T08:27:21.296Z,12.31
2018-05-04T08:28:21.170Z,12.29
2018-05-04T08:29:21.174Z,12.33
2018-05-04T08:30:21.155Z,12.33
2018-05-04T08:31:21.148Z,12.31
2018-05-04T08:32:21.395Z,12.28
2018-05-04T08:33:21.140Z,12.28
2018-05-04T08:34:21.379Z,12.31
2018-05-04T08:35:21.677Z,12.33
2018-05-04T08:36:21.105Z,12.58
2018-05-04T08:37:21.104Z,12.58
2018-05-04T08:38:20.836Z,12.76
2018-05-04T08:39:21.085Z,12.74
2018-05-04T08:40:21.333Z,12.91
2018-05-04T08:41:21.067Z,13.09
2018-05-04T08:42:21.318Z,13.29
2018-05-04T08:43:21.053Z,13.39
2018-05-04T08:44:21.315Z,13.47
2018-05-04T08:45:21.033Z,13.47
2018-05-04T08:46:21.025Z,13.51
2018-05-04T08:47:21.022Z,13.36
2018-05-04T08:48:21.460Z,13.42
2018-05-04T08:49:21.264Z,13.4
2018-05-04T08:50:21.257Z,13.4
2018-05-04T08:51:20.732Z,13.31
2018-05-04T08:52:20.984Z,13.2
2018-05-04T08:53:20.985Z,13.07
2018-05-04T08:54:21.529Z,13.14
2018-05-04T08:55:20.707Z,13.16
2018-05-04T08:56:20.977Z,13.21
2018-05-04T08:57:21.415Z,13.27
2018-05-04T08:58:21.209Z,13.21
2018-05-04T08:59:21.200Z,13.44
2018-05-04T09:00:20.925Z,13.45
2018-05-04T09:01:21.178Z,13.45
2018-05-04T09:02:20.913Z,13.47
2018-05-04T09:03:21.176Z,13.47
2018-05-04T09:04:21.153Z,13.55
2018-05-04T09:05:21.412Z,13.66
2018-05-04T09:06:20.888Z,13.7
2018-05-04T09:07:20.880Z,13.83
2018-05-04T09:08:21.129Z,13.72
2018-05-04T09:09:21.122Z,13.84
2018-05-04T09:10:21.133Z,13.97
2018-05-04T09:11:21.109Z,14.2
2018-05-04T09:12:21.108Z,14.27
2018-05-04T09:13:21.098Z,14.36
2018-05-04T09:14:21.095Z,14.46
2018-05-04T09:15:21.281Z,14.49
2018-05-04T09:16:21.078Z,14.51
2018-05-04T09:17:20.809Z,14.52
2018-05-04T09:18:20.805Z,14.49
2018-05-04T09:19:21.058Z,14.59
2018-05-04T09:20:21.056Z,14.6
2018-05-04T09:21:20.789Z,14.86
2018-05-04T09:22:20.784Z,14.95
2018-05-04T09:23:21.046Z,15.1
2018-05-04T09:24:21.045Z,15.18
2018-05-04T09:25:20.941Z,15.25
2018-05-04T09:26:20.764Z,15.3
2018-05-04T09:27:21.011Z,15.16
2018-05-04T09:28:20.755Z,15.2
2018-05-04T09:29:20.739Z,15.12
2018-05-04T09:30:20.734Z,15.13
2018-05-04T09:31:20.995Z,15.05
2018-05-04T09:32:20.727Z,14.98
2018-05-04T09:33:20.720Z,14.8
2018-05-04T09:34:20.974Z,14.95
2018-05-04T09:35:20.965Z,14.97
2018-05-04T09:36:20.960Z,15
2018-05-04T09:37:21.143Z,15.2
2018-05-04T09:38:20.693Z,15.37
2018-05-04T09:39:20.941Z,15.43
2018-05-04T09:40:20.936Z,15.4
2018-05-04T09:41:20.671Z,15.51
2018-05-04T09:42:20.937Z,15.65
2018-05-04T09:43:20.414Z,15.65
2018-05-04T09:44:20.660Z,15.53
2018-05-04T09:45:20.908Z,15.63
2018-05-04T09:46:20.957Z,15.63
2018-05-04T09:47:20.815Z,15.71
2018-05-04T09:48:20.378Z,15.68
2018-05-04T09:49:20.890Z,15.86
2018-05-04T09:50:20.884Z,15.96
2018-05-04T09:51:20.879Z,15.92
2018-05-04T09:52:20.874Z,16.13
2018-05-04T09:53:20.879Z,16.25
2018-05-04T09:54:20.609Z,16.22
2018-05-04T09:55:20.873Z,16.13
2018-05-04T09:56:20.601Z,16.14
2018-05-04T09:57:20.850Z,16.14
2018-05-04T09:58:20.605Z,16.25
2018-05-04T09:59:20.328Z,16.33
2018-05-04T10:00:20.833Z,16.29
2018-05-04T10:01:20.571Z,16.21
2018-05-04T10:02:20.850Z,16.26
2018-05-04T10:03:20.832Z,16.27
2018-05-04T10:04:20.570Z,16.29
2018-05-04T10:05:20.551Z,16.22
2018-05-04T10:06:20.806Z,16.21
2018-05-04T10:07:20.797Z,16.06
2018-05-04T10:08:20.798Z,16.07
2018-05-04T10:09:20.879Z,16.02
2018-05-04T10:10:20.270Z,16.1
2018-05-04T10:11:20.782Z,16.08
2018-05-04T10:12:20.778Z,15.86
2018-05-04T10:13:20.509Z,15.67
2018-05-04T10:14:20.514Z,15.53
2018-05-04T10:15:20.761Z,15.43
2018-05-04T10:16:20.502Z,15.43
2018-05-04T10:17:20.493Z,15.41
2018-05-04T10:18:20.487Z,15.4
2018-05-04T10:19:20.482Z,15.37
2018-05-04T10:20:20.477Z,15.41
2018-05-04T10:21:20.473Z,15.52
2018-05-04T10:22:20.720Z,15.55
2018-05-04T10:23:20.728Z,15.63
2018-05-04T10:24:20.453Z,15.74
2018-05-04T10:25:20.192Z,15.78
2018-05-04T10:26:20.708Z,15.77
2018-05-04T10:27:20.697Z,15.86
2018-05-04T10:28:20.692Z,15.84
2018-05-04T10:29:20.428Z,15.83
2018-05-04T10:30:20.679Z,15.77
2018-05-04T10:31:20.743Z,15.53
2018-05-04T10:32:20.416Z,15.55
2018-05-04T10:33:20.663Z,15.49
2018-05-04T10:34:20.402Z,15.41
2018-05-04T10:35:20.656Z,15.44
2018-05-04T10:36:20.391Z,15.52
2018-05-04T10:37:20.645Z,15.49
2018-05-04T10:38:20.807Z,15.41
2018-05-04T10:39:20.632Z,15.31
2018-05-04T10:40:20.626Z,15.37
2018-05-04T10:41:20.371Z,15.31
2018-05-04T10:42:20.357Z,15.25
2018-05-04T10:43:20.096Z,15.31
2018-05-04T10:44:20.345Z,15.4
2018-05-04T10:45:20.744Z,15.49
2018-05-04T10:46:20.597Z,15.53
2018-05-04T10:47:20.331Z,15.55
2018-05-04T10:48:20.323Z,15.52
2018-05-04T10:49:20.319Z,15.58
2018-05-04T10:50:20.312Z,15.62
2018-05-04T10:51:20.582Z,15.59
2018-05-04T10:52:20.303Z,15.33
2018-05-04T10:53:20.294Z,15.4
2018-05-04T10:54:20.546Z,15.34
2018-05-04T10:55:20.285Z,15.33
2018-05-04T10:56:20.542Z,15.18
2018-05-04T10:57:20.675Z,15.31
2018-05-04T10:58:20.533Z,15.33
2018-05-04T10:59:20.523Z,15.2
2018-05-04T11:00:20.263Z,15.33
2018-05-04T11:01:20.253Z,15.33
2018-05-04T11:02:20.254Z,15.41
2018-05-04T11:03:20.242Z,15.43
2018-05-04T11:04:20.502Z,15.43
2018-05-04T11:05:20.308Z,15.43
2018-05-04T11:06:20.234Z,15.4
2018-05-04T11:07:20.476Z,15.47
2018-05-04T11:08:20.501Z,15.58
2018-05-04T11:09:20.465Z,15.6
2018-05-04T11:10:20.457Z,15.6
2018-05-04T11:11:20.447Z,15.63
2018-05-04T11:12:20.189Z,15.73
2018-05-04T11:13:20.188Z,15.77
2018-05-04T11:14:20.436Z,15.77
2018-05-04T11:15:20.428Z,15.7
2018-05-04T11:16:20.162Z,15.6
2018-05-04T11:17:20.156Z,15.58
2018-05-04T11:18:20.151Z,15.62
2018-05-04T11:19:20.536Z,15.59
2018-05-04T11:20:20.436Z,15.62
2018-05-04T11:21:20.396Z,15.68
2018-05-04T11:22:19.871Z,15.62
2018-05-04T11:23:20.387Z,15.63
2018-05-04T11:24:20.391Z,15.53
2018-05-04T11:25:20.300Z,15.55
2018-05-04T11:26:19.856Z,15.53
2018-05-04T11:27:20.365Z,15.62
2018-05-04T11:28:20.369Z,15.59
2018-05-04T11:29:20.574Z,15.51
2018-05-04T11:30:20.085Z,15.43
2018-05-04T11:31:20.079Z,15.41
2018-05-04T11:32:20.072Z,15.44
2018-05-04T11:33:20.329Z,15.38
2018-05-04T11:34:20.061Z,15.45
2018-05-04T11:35:20.313Z,15.41
2018-05-04T11:36:20.054Z,15.49
2018-05-04T11:37:20.043Z,15.56
2018-05-04T11:38:20.299Z,15.65
2018-05-04T11:39:20.034Z,15.74
2018-05-04T11:40:20.284Z,15.73
2018-05-04T11:41:20.499Z,15.89
2018-05-04T11:42:20.280Z,15.92
2018-05-04T11:43:20.217Z,15.75
2018-05-04T11:44:19.745Z,15.78
2018-05-04T11:45:20.029Z,15.68
2018-05-04T11:46:20.251Z,15.6
2018-05-04T11:47:19.987Z,15.7
2018-05-04T11:48:20.200Z,15.7
2018-05-04T11:49:19.977Z,15.75
2018-05-04T11:50:19.979Z,15.75
2018-05-04T11:51:20.232Z,15.74
2018-05-04T11:52:20.213Z,15.77
2018-05-04T11:53:19.954Z,15.77
2018-05-04T11:54:19.951Z,15.74
2018-05-04T11:55:20.595Z,15.86
2018-05-04T11:56:19.939Z,15.86
2018-05-04T11:57:20.189Z,15.74
2018-05-04T11:58:20.188Z,15.74
2018-05-04T11:59:20.178Z,15.7
2018-05-04T12:00:20.178Z,15.68
2018-05-04T12:01:19.909Z,15.74
2018-05-04T12:02:19.988Z,15.67
2018-05-04T12:03:20.160Z,15.71
2018-05-04T12:04:19.900Z,15.74
2018-05-04T12:05:20.145Z,15.73
2018-05-04T12:06:19.623Z,15.75
2018-05-04T12:07:20.136Z,15.77
2018-05-04T12:08:20.126Z,15.73
2018-05-04T12:09:19.867Z,15.8
2018-05-04T12:10:20.114Z,15.91
2018-05-04T12:11:20.125Z,15.86
2018-05-04T12:12:19.858Z,15.86
2018-05-04T12:13:20.099Z,15.98
2018-05-04T12:14:19.842Z,16.04
2018-05-04T12:15:19.834Z,16.13
2018-05-04T12:16:20.283Z,16.14
2018-05-04T12:17:19.824Z,16.21
2018-05-04T12:18:20.096Z,16.17
2018-05-04T12:19:20.069Z,16.14
2018-05-04T12:20:20.066Z,16.22
2018-05-04T12:21:19.806Z,16.21
2018-05-04T12:22:20.054Z,16.11
2018-05-04T12:23:20.044Z,16.04
2018-05-04T12:24:20.045Z,15.93
2018-05-04T12:25:19.786Z,15.98
2018-05-04T12:26:20.038Z,15.86
2018-05-04T12:27:19.785Z,15.86
2018-05-04T12:28:20.021Z,15.99
2018-05-04T12:29:19.501Z,16.08
2018-05-04T12:30:20.017Z,16.07
2018-05-04T12:31:19.795Z,16.13
2018-05-04T12:32:20.002Z,16.17
2018-05-04T12:33:19.992Z,16.22
2018-05-04T12:34:19.732Z,16.27
2018-05-04T12:35:19.728Z,16.25
2018-05-04T12:36:19.719Z,16.16
2018-05-04T12:37:19.719Z,16.17
2018-05-04T12:38:20.196Z,16.06
2018-05-04T12:39:19.707Z,16.02
2018-05-04T12:40:19.961Z,15.91
2018-05-04T12:41:19.436Z,15.92
2018-05-04T12:42:19.947Z,15.96
2018-05-04T12:43:19.945Z,15.99
2018-05-04T12:44:19.937Z,16.08
2018-05-04T12:45:19.931Z,16.17
2018-05-04T12:46:19.925Z,16.25
2018-05-04T12:47:19.927Z,16.34
2018-05-04T12:48:19.917Z,16.3
2018-05-04T12:49:19.396Z,16.33
2018-05-04T12:50:19.910Z,16.27
2018-05-04T12:51:19.904Z,16.34
2018-05-04T12:52:19.900Z,16.42
2018-05-04T12:53:19.896Z,16.44
2018-05-04T12:54:19.629Z,16.62
2018-05-04T12:55:19.622Z,16.51
2018-05-04T12:56:19.619Z,16.52
2018-05-04T12:57:19.618Z,16.47
2018-05-04T12:58:19.612Z,16.42
2018-05-04T12:59:19.601Z,16.3
2018-05-04T13:00:19.607Z,16.27
2018-05-04T13:01:19.596Z,16.3
2018-05-04T13:02:19.850Z,16.33
2018-05-04T13:03:19.845Z,16.11
2018-05-04T13:04:19.917Z,16.1
2018-05-04T13:05:19.828Z,16.04